createdAt,value
2018-03-24T00:01:33.253Z,11.57
2018-03-24T00:04:01.626Z,12.40
2018-03-24T00:06:29.038Z,12.07
2018-03-24T00:08:56.471Z,12.50
2018-03-24T00:11:23.908Z,11.05
2018-03-24T00:13:51.363Z,11.18
2018-03-24T00:16:18.842Z,17.23
2018-03-24T00:18:46.283Z,12.00
2018-03-24T00:21:13.707Z,10.82
2018-03-24T00:23:41.146Z,12.10
2018-03-24T00:26:08.624Z,11.80
2018-03-24T00:28:36.010Z,11.95
2018-03-24T00:31:03.452Z,12.20
2018-03-24T00:33:31.698Z,11.40
2018-03-24T00:35:59.164Z,10.63
2018-03-24T00:38:26.603Z,11.70
2018-03-24T00:40:54.034Z,11.48
2018-03-24T00:43:21.469Z,12.07
2018-03-24T00:45:48.918Z,12.10
2018-03-24T00:48:16.358Z,12.98
2018-03-24T00:50:44.559Z,12.48
2018-03-24T00:53:12.034Z,12.23
2018-03-24T00:55:39.471Z,12.05
2018-03-24T00:58:06.920Z,11.82
2018-03-24T01:00:34.375Z,12.68
2018-03-24T01:03:01.812Z,12.13
2018-03-24T01:05:30.026Z,11.60
2018-03-24T01:07:57.455Z,12.15
2018-03-24T01:10:24.934Z,11.50
2018-03-24T01:12:52.381Z,10.48
2018-03-24T01:15:19.820Z,11.10
2018-03-24T01:17:48.042Z,10.35
2018-03-24T01:20:15.515Z,10.82
2018-03-24T01:22:42.943Z,11.38
2018-03-24T01:25:10.493Z,10.85
2018-03-24T01:27:37.921Z,11.40
2018-03-24T01:30:06.146Z,11.35
2018-03-24T01:32:33.593Z,11.32
2018-03-24T01:35:01.046Z,12.32
2018-03-24T01:37:28.598Z,14.35
2018-03-24T01:39:56.022Z,11.77
2018-03-24T01:42:23.518Z,11.50
2018-03-24T01:44:50.970Z,11.50
2018-03-24T01:47:18.520Z,11.60
2018-03-24T01:49:45.946Z,12.23
2018-03-24T01:52:14.151Z,11.15
2018-03-24T01:54:41.600Z,10.88
2018-03-24T01:57:09.034Z,10.55
2018-03-24T01:59:37.235Z,11.02
2018-03-24T02:02:04.695Z,10.80
2018-03-24T02:04:32.168Z,10.70
2018-03-24T02:06:59.606Z,11.90
2018-03-24T02:09:27.051Z,11.90
2018-03-24T02:11:54.625Z,12.00
2018-03-24T02:14:22.211Z,11.10
2018-03-24T02:16:49.750Z,11.18
2018-03-24T02:19:17.186Z,11.85
2018-03-24T02:21:45.522Z,11.32
2018-03-24T02:24:13.757Z,11.60
2018-03-24T02:26:41.212Z,11.12
2018-03-24T02:29:08.678Z,12.13
2018-03-24T02:31:36.163Z,12.50
2018-03-24T02:34:03.707Z,13.30
2018-03-24T02:36:31.266Z,13.95
2018-03-24T02:38:58.824Z,13.90
2018-03-24T02:41:26.267Z,13.30
2018-03-24T02:43:53.738Z,12.80
2018-03-24T02:46:21.186Z,13.43
2018-03-24T02:48:48.627Z,12.85
2018-03-24T02:51:16.103Z,12.50
2018-03-24T02:53:43.553Z,11.90
2018-03-24T02:56:11.010Z,12.77
2018-03-24T02:58:38.451Z,12.50
2018-03-24T03:01:05.884Z,12.95
2018-03-24T03:03:33.324Z,13.73
2018-03-24T03:06:00.824Z,12.70
2018-03-24T03:08:28.270Z,13.05
2018-03-24T03:10:55.759Z,12.27
2018-03-24T03:13:23.203Z,13.23
2018-03-24T03:15:50.658Z,13.00
2018-03-24T03:18:18.114Z,13.43
2018-03-24T03:20:45.558Z,13.80
2018-03-24T03:23:12.994Z,14.18
2018-03-24T03:25:40.423Z,14.20
2018-03-24T03:28:08.637Z,13.57
2018-03-24T03:33:31.705Z,15.45
2018-03-24T03:35:59.186Z,16.20
2018-03-24T03:38:26.620Z,15.32
2018-03-24T03:40:54.047Z,15.70
2018-03-24T03:43:21.494Z,15.10
2018-03-24T03:45:49.710Z,15.23
2018-03-24T03:48:17.138Z,15.20
2018-03-24T03:50:44.572Z,14.63
2018-03-24T03:53:12.102Z,15.70
2018-03-24T03:55:39.546Z,15.85
2018-03-24T03:58:07.006Z,15.70
2018-03-24T04:00:34.454Z,16.05
2018-03-24T04:03:01.927Z,16.70
2018-03-24T04:05:29.338Z,15.65
2018-03-24T04:07:56.777Z,16.08
2018-03-24T04:10:24.988Z,15.85
2018-03-24T04:12:52.470Z,16.00
2018-03-24T04:15:19.927Z,15.77
2018-03-24T04:17:47.343Z,15.23
2018-03-24T04:20:14.786Z,15.50
2018-03-24T04:22:42.995Z,15.48
2018-03-24T04:25:10.437Z,15.00
2018-03-24T04:27:37.871Z,16.20
2018-03-24T04:30:06.084Z,16.17
2018-03-24T04:32:33.542Z,16.05
2018-03-24T04:35:00.989Z,16.08
2018-03-24T04:37:28.418Z,17.08
2018-03-24T04:39:55.926Z,17.37
2018-03-24T04:42:23.354Z,16.25
2018-03-24T04:44:50.811Z,16.65
2018-03-24T04:47:18.397Z,16.20
2018-03-24T04:49:45.854Z,16.33
2018-03-24T04:52:13.314Z,16.60
2018-03-24T04:54:40.760Z,16.60
2018-03-24T04:57:08.231Z,16.58
2018-03-24T04:59:35.666Z,15.70
2018-03-24T05:02:03.109Z,16.63
2018-03-24T05:04:30.526Z,16.15
2018-03-24T05:06:58.753Z,17.20
2018-03-24T05:09:26.235Z,17.37
2018-03-24T05:11:53.666Z,17.15
2018-03-24T05:14:21.135Z,17.85
2018-03-24T05:16:48.598Z,16.55
2018-03-24T05:19:16.066Z,16.67
2018-03-24T05:21:43.682Z,17.00
2018-03-24T05:24:11.176Z,16.75
2018-03-24T05:26:38.627Z,17.33
2018-03-24T05:29:06.075Z,17.92
2018-03-24T05:31:33.634Z,16.30
2018-03-24T05:34:01.073Z,17.30
2018-03-24T05:36:29.464Z,18.67
2018-03-24T05:38:56.894Z,18.25
2018-03-24T05:41:24.342Z,18.70
2018-03-24T05:43:51.836Z,18.08
2018-03-24T05:46:19.272Z,18.80
2018-03-24T05:48:46.744Z,18.33
2018-03-24T05:51:14.185Z,18.23
2018-03-24T05:53:41.621Z,17.85
2018-03-24T05:56:09.054Z,17.58
2018-03-24T05:58:37.250Z,19.30
2018-03-24T06:01:04.691Z,18.27
2018-03-24T06:03:32.886Z,18.00
2018-03-24T06:06:00.334Z,18.77
2018-03-24T06:08:27.770Z,17.92
2018-03-24T06:10:55.966Z,18.25
2018-03-24T06:13:23.406Z,17.15
2018-03-24T06:15:51.610Z,18.80
2018-03-24T06:18:19.086Z,19.30
2018-03-24T06:20:46.646Z,19.40
2018-03-24T06:23:14.851Z,19.00
2018-03-24T06:25:42.309Z,19.25
2018-03-24T06:28:10.510Z,18.55
2018-03-24T06:30:55.858Z,19.67
2018-03-24T06:33:23.344Z,20.33
2018-03-24T06:35:51.523Z,19.10
2018-03-24T06:38:18.961Z,19.90
2018-03-24T06:40:47.172Z,20.50
2018-03-24T06:43:14.630Z,19.52
2018-03-24T06:45:42.079Z,20.20
2018-03-24T06:48:09.508Z,21.87
2018-03-24T06:50:37.704Z,20.05
2018-03-24T06:53:05.135Z,22.35
2018-03-24T06:55:33.343Z,20.98
2018-03-24T06:58:00.775Z,19.92
2018-03-24T07:00:28.218Z,19.00
2018-03-24T07:02:56.417Z,21.13
2018-03-24T07:05:23.854Z,20.92
2018-03-24T07:07:51.292Z,22.20
2018-03-24T07:10:19.529Z,20.55
2018-03-24T07:12:46.958Z,21.62
2018-03-24T07:15:14.402Z,21.27
2018-03-24T07:17:41.840Z,20.47
2018-03-24T07:20:10.046Z,20.17
2018-03-24T07:22:37.490Z,21.17
2018-03-24T07:25:04.929Z,19.87
2018-03-24T07:27:33.122Z,19.90
2018-03-24T07:30:00.576Z,21.77
2018-03-24T07:32:28.006Z,20.27
2018-03-24T07:34:56.220Z,20.92
2018-03-24T07:37:23.652Z,20.20
2018-03-24T07:39:51.858Z,19.25
2018-03-24T07:42:19.338Z,19.83
2018-03-24T07:44:46.776Z,20.20
2018-03-24T07:47:14.219Z,20.30
2018-03-24T07:49:41.714Z,19.93
2018-03-24T07:52:09.238Z,20.30
2018-03-24T07:54:36.664Z,19.75
2018-03-24T07:57:04.875Z,19.95
2018-03-24T07:59:32.310Z,19.90
2018-03-24T08:01:59.753Z,21.23
2018-03-24T08:04:27.958Z,19.75
2018-03-24T08:06:55.397Z,18.55
2018-03-24T08:09:23.594Z,20.37
2018-03-24T08:11:51.147Z,20.58
2018-03-24T08:14:18.580Z,20.30
2018-03-24T08:16:46.073Z,19.60
2018-03-24T08:19:14.223Z,20.85
2018-03-24T08:21:41.667Z,20.40
2018-03-24T08:24:09.106Z,20.00
2018-03-24T08:26:37.346Z,20.23
2018-03-24T08:29:04.906Z,20.35
2018-03-24T08:31:32.355Z,19.67
2018-03-24T08:33:59.795Z,21.10
2018-03-24T08:36:27.530Z,19.83
2018-03-24T08:38:54.985Z,20.58
2018-03-24T08:41:22.432Z,20.40
2018-03-24T08:43:49.874Z,19.60
2018-03-24T08:46:17.307Z,21.57
2018-03-24T08:48:44.747Z,21.20
2018-03-24T08:51:12.182Z,19.70
2018-03-24T08:53:39.616Z,19.75
2018-03-24T08:56:07.046Z,19.83
2018-03-24T08:58:34.503Z,20.88
2018-03-24T09:01:02.084Z,21.73
2018-03-24T09:03:29.578Z,20.12
2018-03-24T09:05:57.739Z,20.75
2018-03-24T09:08:25.163Z,20.77
2018-03-24T09:10:53.374Z,20.00
2018-03-24T09:13:20.891Z,20.92
2018-03-24T09:15:49.099Z,21.80
2018-03-24T09:18:16.522Z,20.70
2018-03-24T09:20:44.760Z,20.95
2018-03-24T09:23:12.197Z,21.80
2018-03-24T09:25:39.643Z,20.60
2018-03-24T09:28:07.081Z,22.10
2018-03-24T09:30:34.526Z,21.15
2018-03-24T09:33:02.731Z,22.37
2018-03-24T09:35:30.187Z,21.37
2018-03-24T09:37:57.627Z,21.10
2018-03-24T09:40:25.072Z,21.13
2018-03-24T09:42:52.513Z,21.23
2018-03-24T09:45:20.727Z,21.52
2018-03-24T09:47:48.230Z,20.90
2018-03-24T09:50:15.662Z,21.50
2018-03-24T09:52:43.124Z,20.90
2018-03-24T09:55:10.532Z,20.62
2018-03-24T09:57:37.978Z,23.87
2018-03-24T10:00:06.203Z,21.00
2018-03-24T10:02:33.655Z,20.97
2018-03-24T10:05:01.087Z,22.00
2018-03-24T10:07:28.532Z,20.05
2018-03-24T10:09:56.005Z,22.08
2018-03-24T10:12:23.442Z,21.80
2018-03-24T10:14:50.879Z,21.85
2018-03-24T10:17:19.197Z,21.90
2018-03-24T10:19:46.619Z,20.85
2018-03-24T10:25:18.470Z,21.62
2018-03-24T10:27:45.910Z,22.87
2018-03-24T10:30:13.348Z,23.10
2018-03-24T10:32:40.824Z,23.33
2018-03-24T10:35:08.358Z,22.65
2018-03-24T10:37:41.625Z,22.87
2018-03-24T10:40:09.887Z,23.60
2018-03-24T10:42:37.360Z,23.55
2018-03-24T10:45:04.769Z,24.00
2018-03-24T10:47:32.223Z,23.00
2018-03-24T10:49:59.667Z,23.77
2018-03-24T10:52:27.241Z,24.73
2018-03-24T10:54:54.643Z,23.95
2018-03-24T10:57:22.109Z,24.30
2018-03-24T10:59:54.025Z,23.05
2018-03-24T11:02:21.469Z,24.83
2018-03-24T11:04:48.918Z,25.10
2018-03-24T11:07:16.362Z,25.67
2018-03-24T11:09:43.796Z,24.52
2018-03-24T11:12:11.242Z,25.05
2018-03-24T11:14:38.693Z,25.40
2018-03-24T11:17:06.135Z,26.25
2018-03-24T11:19:34.349Z,24.92
2018-03-24T11:22:01.787Z,24.98
2018-03-24T11:24:29.242Z,24.40
2018-03-24T11:26:56.747Z,24.57
2018-03-24T11:29:24.261Z,25.20
2018-03-24T11:31:51.735Z,26.30
2018-03-24T11:34:19.191Z,28.38
2018-03-24T11:36:46.671Z,30.37
2018-03-24T11:39:14.194Z,28.48
2018-03-24T11:41:41.665Z,26.53
2018-03-24T11:44:09.097Z,27.23
2018-03-24T11:46:36.580Z,28.12
2018-03-24T11:49:04.029Z,27.00
2018-03-24T11:51:31.587Z,28.15
2018-03-24T11:53:59.021Z,27.70
2018-03-24T11:56:26.500Z,29.90
2018-03-24T11:58:53.932Z,30.08
2018-03-24T12:01:21.441Z,30.73
2018-03-24T12:03:49.748Z,30.90
2018-03-24T12:06:17.187Z,30.25
2018-03-24T12:08:44.626Z,29.33
2018-03-24T12:11:12.054Z,28.55
2018-03-24T12:13:39.498Z,29.55
2018-03-24T12:16:06.931Z,29.50
2018-03-24T12:18:35.148Z,29.98
2018-03-24T12:21:02.625Z,30.83
2018-03-24T12:23:30.062Z,30.37
2018-03-24T12:25:57.505Z,30.50
2018-03-24T12:28:24.955Z,29.02
2018-03-24T12:30:52.424Z,31.70
2018-03-24T12:33:19.861Z,32.00
2018-03-24T12:35:47.366Z,30.02
2018-03-24T12:38:14.831Z,30.20
2018-03-24T12:40:42.293Z,31.07
2018-03-24T12:43:09.844Z,31.75
2018-03-24T12:45:37.408Z,29.92
2018-03-24T12:48:04.853Z,29.63
2018-03-24T12:50:32.306Z,32.63
2018-03-24T12:52:59.840Z,30.47
2018-03-24T12:55:27.294Z,29.70
2018-03-24T12:57:54.733Z,30.95
2018-03-24T13:00:22.956Z,31.23
2018-03-24T13:02:50.406Z,30.90
2018-03-24T13:05:17.868Z,32.63
2018-03-24T13:07:45.326Z,31.67
2018-03-24T13:10:12.761Z,29.98
2018-03-24T13:12:40.205Z,30.65
2018-03-24T13:15:07.666Z,31.35
2018-03-24T13:17:35.093Z,31.12
2018-03-24T13:20:03.319Z,30.48
2018-03-24T13:22:30.810Z,30.17
2018-03-24T13:24:58.231Z,30.83
2018-03-24T13:27:25.690Z,30.58
2018-03-24T13:29:53.140Z,30.83
2018-03-24T13:32:20.575Z,31.00
2018-03-24T13:34:48.005Z,32.45
2018-03-24T13:37:15.455Z,29.80
2018-03-24T13:39:43.664Z,30.15
2018-03-24T13:42:11.221Z,30.55
2018-03-24T13:44:38.679Z,29.20
2018-03-24T13:47:06.236Z,28.00
2018-03-24T13:49:33.718Z,28.27
2018-03-24T13:52:01.190Z,28.20
2018-03-24T13:54:28.647Z,28.02
2018-03-24T13:56:56.162Z,27.45
2018-03-24T13:59:23.929Z,25.37
2018-03-24T14:01:51.370Z,26.17
2018-03-24T14:04:18.805Z,25.43
2018-03-24T14:06:47.121Z,25.58
2018-03-24T14:09:14.594Z,24.00
2018-03-24T14:11:42.051Z,23.27
2018-03-24T14:14:09.492Z,23.10
2018-03-24T14:16:36.930Z,22.23
2018-03-24T14:19:04.363Z,22.50
2018-03-24T14:21:31.814Z,27.83
2018-03-24T14:24:00.128Z,23.00
2018-03-24T14:26:27.570Z,21.08
2018-03-24T14:28:54.998Z,22.52
2018-03-24T14:31:23.210Z,21.52
2018-03-24T14:33:50.664Z,20.42
2018-03-24T14:36:18.231Z,21.30
2018-03-24T14:38:45.658Z,21.90
2018-03-24T14:41:13.870Z,21.35
2018-03-24T14:43:41.339Z,20.85
2018-03-24T14:46:08.812Z,21.37
2018-03-24T14:48:36.534Z,20.25
2018-03-24T14:51:03.966Z,19.67
2018-03-24T14:53:31.412Z,19.73
2018-03-24T14:55:59.619Z,22.02
2018-03-24T14:58:27.062Z,22.08
2018-03-24T15:00:54.533Z,20.25
2018-03-24T15:03:22.091Z,19.08
2018-03-24T15:05:49.525Z,19.67
2018-03-24T15:08:16.975Z,20.60
2018-03-24T15:10:45.202Z,19.27
2018-03-24T15:13:12.656Z,18.27
2018-03-24T15:15:40.116Z,18.80
2018-03-24T15:18:07.587Z,19.40
2018-03-24T15:20:35.064Z,19.10
2018-03-24T15:23:03.266Z,18.52
2018-03-24T15:25:30.724Z,18.27
2018-03-24T15:27:58.194Z,19.17
2018-03-24T15:30:50.304Z,18.77
2018-03-24T15:33:30.335Z,19.43
2018-03-24T15:36:09.747Z,20.08
2018-03-24T15:38:37.186Z,18.55
2018-03-24T15:41:04.623Z,18.55
2018-03-24T15:43:32.091Z,20.20
2018-03-24T15:45:59.567Z,20.88
2018-03-24T15:48:27.008Z,20.30
2018-03-24T15:50:54.499Z,19.10
2018-03-24T15:53:21.898Z,18.80
2018-03-24T15:55:49.342Z,20.37
2018-03-24T15:58:16.787Z,19.70
2018-03-24T16:00:44.275Z,18.80
2018-03-24T16:03:11.703Z,20.10
2018-03-24T16:08:13.709Z,16.87
2018-03-24T16:10:41.181Z,18.42
2018-03-24T16:13:08.626Z,17.60
2018-03-24T16:15:36.116Z,18.70
2018-03-24T16:18:03.578Z,19.90
2018-03-24T16:20:31.052Z,16.77
2018-03-24T16:22:59.274Z,18.42
2018-03-24T16:25:26.722Z,18.77
2018-03-24T16:27:54.198Z,18.10
2018-03-24T16:30:21.738Z,18.40
2018-03-24T16:32:49.194Z,17.23
2018-03-24T16:35:16.648Z,17.70
2018-03-24T16:37:44.088Z,16.08
2018-03-24T16:40:11.555Z,17.70
2018-03-24T16:42:38.995Z,16.90
2018-03-24T16:45:07.209Z,16.12
2018-03-24T16:47:34.774Z,16.27
2018-03-24T16:50:02.222Z,17.70
2018-03-24T16:52:29.659Z,15.40
2018-03-24T16:54:57.119Z,16.10
2018-03-24T16:57:24.563Z,15.87
2018-03-24T16:59:52.012Z,16.25
2018-03-24T17:02:19.471Z,17.40
2018-03-24T17:04:46.926Z,15.50
2018-03-24T17:07:14.406Z,17.15
2018-03-24T17:09:41.961Z,15.60
2018-03-24T17:12:09.438Z,16.00
2018-03-24T17:14:37.001Z,16.10
2018-03-24T17:17:04.535Z,16.37
2018-03-24T17:19:31.990Z,15.60
2018-03-24T17:21:59.446Z,15.27
2018-03-24T17:24:26.926Z,16.17
2018-03-24T17:26:54.485Z,16.52
2018-03-24T17:29:21.939Z,15.40
2018-03-24T17:31:49.379Z,15.85
2018-03-24T17:34:16.835Z,16.40
2018-03-24T17:36:44.286Z,17.02
2018-03-24T17:39:11.779Z,16.20
2018-03-24T17:41:39.341Z,15.48
2018-03-24T17:44:06.887Z,14.87
2018-03-24T17:46:34.416Z,15.40
2018-03-24T17:49:01.886Z,15.77
2018-03-24T17:51:29.463Z,14.73
2018-03-24T17:53:57.096Z,15.10
2018-03-24T17:56:24.515Z,13.73
2018-03-24T17:58:51.957Z,15.18
2018-03-24T18:01:19.464Z,16.92
2018-03-24T18:03:46.900Z,15.50
2018-03-24T18:06:14.414Z,15.50
2018-03-24T18:08:41.881Z,16.90
2018-03-24T18:11:09.317Z,14.50
2018-03-24T18:13:36.849Z,13.82
2018-03-24T18:16:04.285Z,13.45
2018-03-24T18:18:31.734Z,14.43
2018-03-24T18:20:59.174Z,14.57
2018-03-24T18:23:26.826Z,13.00
2018-03-24T18:25:54.268Z,13.82
2018-03-24T18:28:21.735Z,14.60
2018-03-24T18:30:49.180Z,14.40
2018-03-24T18:33:16.635Z,13.27
2018-03-24T18:35:44.161Z,14.33
2018-03-24T18:38:11.944Z,14.60
2018-03-24T18:40:39.520Z,15.00
2018-03-24T18:43:07.044Z,14.50
2018-03-24T18:45:34.466Z,15.50
2018-03-24T18:48:02.368Z,15.18
2018-03-24T18:50:29.794Z,15.60
2018-03-24T18:52:57.238Z,15.07
2018-03-24T18:55:25.461Z,14.50
2018-03-24T18:57:52.894Z,17.08
2018-03-24T19:00:20.337Z,17.67
2018-03-24T19:02:48.538Z,17.80
2018-03-24T19:05:16.010Z,16.02
2018-03-24T19:07:43.453Z,15.50
2018-03-24T19:10:10.976Z,15.23
2018-03-24T19:12:38.418Z,18.55
2018-03-24T19:15:06.740Z,16.87
2018-03-24T19:17:34.183Z,15.52
2018-03-24T19:20:01.695Z,15.18
2018-03-24T19:22:29.209Z,14.83
2018-03-24T19:24:56.631Z,15.57
2018-03-24T19:27:24.845Z,15.43
2018-03-24T19:29:52.295Z,15.65
2018-03-24T19:32:19.752Z,16.85
2018-03-24T19:34:47.183Z,16.12
2018-03-24T19:37:14.634Z,16.55
2018-03-24T19:39:42.850Z,17.23
2018-03-24T19:42:10.294Z,17.40
2018-03-24T19:44:37.747Z,17.10
2018-03-24T19:47:05.236Z,17.70
2018-03-24T19:49:32.686Z,16.60
2018-03-24T19:52:00.139Z,18.48
2018-03-24T19:54:27.694Z,17.27
2018-03-24T19:56:55.147Z,16.30
2018-03-24T19:59:22.610Z,15.10
2018-03-24T20:01:50.105Z,15.00
2018-03-24T20:04:18.357Z,14.43
2018-03-24T20:06:45.806Z,16.23
2018-03-24T20:09:13.262Z,15.13
2018-03-24T20:11:40.796Z,16.12
2018-03-24T20:14:08.236Z,15.63
2018-03-24T20:16:35.694Z,16.10
2018-03-24T20:19:03.156Z,16.00
2018-03-24T20:21:30.666Z,16.30
2018-03-24T20:23:58.111Z,15.85
2018-03-24T20:26:25.654Z,15.20
2018-03-24T20:28:53.192Z,15.77
2018-03-24T20:31:20.626Z,15.48
2018-03-24T20:33:48.072Z,13.88
2018-03-24T20:36:16.274Z,15.57
2018-03-24T20:38:43.718Z,15.52
2018-03-24T20:41:11.170Z,15.40
2018-03-24T20:43:39.382Z,15.00
2018-03-24T20:46:06.825Z,17.67
2018-03-24T20:48:34.258Z,17.55
2018-03-24T20:51:01.698Z,15.55
2018-03-24T20:53:29.926Z,17.65
2018-03-24T20:55:57.427Z,16.52
2018-03-24T20:58:24.851Z,15.43
2018-03-24T21:00:52.290Z,15.65
2018-03-24T21:03:19.743Z,14.63
2018-03-24T21:05:47.263Z,15.73
2018-03-24T21:08:15.503Z,14.82
2018-03-24T21:10:42.943Z,17.87
2018-03-24T21:13:10.481Z,15.98
2018-03-24T21:15:38.641Z,15.75
2018-03-24T21:18:06.109Z,15.33
2018-03-24T21:20:33.538Z,16.20
2018-03-24T21:23:00.988Z,17.45
2018-03-24T21:25:29.202Z,17.20
2018-03-24T21:27:56.640Z,16.85
2018-03-24T21:30:24.065Z,17.00
2018-03-24T21:32:52.266Z,16.90
2018-03-24T21:35:19.735Z,16.00
2018-03-24T21:37:47.168Z,15.45
2018-03-24T21:40:14.606Z,14.70
2018-03-24T21:42:42.120Z,14.90
2018-03-24T21:45:09.562Z,14.63
2018-03-24T21:47:36.987Z,14.20
2018-03-24T21:50:05.186Z,15.38
2018-03-24T21:52:32.642Z,15.40
2018-03-24T21:55:00.082Z,15.57
2018-03-24T21:57:27.559Z,14.75
2018-03-24T21:59:54.997Z,14.32
2018-03-24T22:02:22.433Z,16.52
2018-03-24T22:04:50.630Z,15.50
2018-03-24T22:07:18.070Z,17.08
2018-03-24T22:09:46.380Z,16.35
2018-03-24T22:12:13.839Z,16.65
2018-03-24T22:14:41.289Z,17.90
2018-03-24T22:17:08.714Z,18.00
2018-03-24T22:19:36.941Z,17.08
2018-03-24T22:22:04.373Z,15.73
2018-03-24T22:24:31.822Z,15.70
2018-03-24T22:26:59.339Z,16.23
2018-03-24T22:29:26.722Z,15.38
2018-03-24T22:31:54.165Z,16.30
2018-03-24T22:34:22.378Z,16.50
2018-03-24T22:36:49.806Z,17.27
2018-03-24T22:39:17.318Z,15.13
2018-03-24T22:41:44.751Z,15.13
2018-03-24T22:44:12.191Z,16.30
2018-03-24T22:46:39.669Z,17.05
2018-03-24T22:49:07.131Z,17.35
2018-03-24T22:51:34.558Z,17.65
2018-03-24T22:54:02.140Z,17.30
2018-03-24T22:56:29.566Z,15.23
2018-03-24T22:58:57.002Z,15.93
2018-03-24T23:01:25.211Z,14.90
2018-03-24T23:03:52.655Z,16.20
2018-03-24T23:06:20.231Z,16.10
2018-03-24T23:08:47.666Z,16.10
2018-03-24T23:11:15.127Z,16.48
2018-03-24T23:13:43.318Z,15.50
2018-03-24T23:16:10.770Z,18.23
2018-03-24T23:18:38.213Z,15.27
2018-03-24T23:21:05.651Z,16.12
2018-03-24T23:23:33.854Z,15.90
2018-03-24T23:26:01.311Z,15.75
2018-03-24T23:28:28.869Z,15.68
2018-03-24T23:30:56.293Z,17.30
2018-03-24T23:33:24.506Z,17.08
2018-03-24T23:35:51.960Z,15.80
2018-03-24T23:38:19.398Z,16.60
2018-03-24T23:40:46.843Z,17.00
2018-03-24T23:43:15.044Z,17.40
2018-03-24T23:45:42.493Z,17.10
2018-03-24T23:48:09.916Z,17.23
2018-03-24T23:50:38.122Z,17.10
2018-03-24T23:53:05.558Z,18.10
2018-03-24T23:55:33.002Z,17.20
2018-03-24T23:58:01.202Z,17.00
